createdAt,value
2018-06-12T00:01:14.877Z,8.00
2018-06-12T00:03:43.666Z,8.37
2018-06-12T00:06:12.473Z,8.40
2018-06-12T00:08:41.273Z,8.30
2018-06-12T00:11:10.089Z,8.70
2018-06-12T00:13:38.937Z,7.80
2018-06-12T00:16:07.765Z,7.67
2018-06-12T00:18:36.625Z,8.70
2018-06-12T00:21:05.484Z,7.70
2018-06-12T00:23:34.097Z,8.57
2018-06-12T00:26:02.798Z,7.77
2018-06-12T00:28:31.708Z,8.43
2018-06-12T00:31:00.585Z,7.47
2018-06-12T00:33:29.693Z,8.00
2018-06-12T00:35:58.573Z,7.90
2018-06-12T00:38:27.421Z,7.47
2018-06-12T00:40:56.269Z,7.83
2018-06-12T00:43:25.145Z,8.53
2018-06-12T00:45:54.021Z,8.20
2018-06-12T00:48:22.890Z,8.17
2018-06-12T00:50:51.705Z,7.60
2018-06-12T00:53:20.581Z,7.10
2018-06-12T00:55:50.381Z,8.20
2018-06-12T00:58:20.216Z,7.77
2018-06-12T01:00:49.137Z,7.83
2018-06-12T01:03:18.013Z,7.77
2018-06-12T01:05:46.857Z,7.60
2018-06-12T01:08:15.416Z,7.70
2018-06-12T01:10:44.145Z,8.20
2018-06-12T01:13:13.053Z,8.13
2018-06-12T01:15:41.941Z,7.57
2018-06-12T01:18:10.801Z,7.70
2018-06-12T01:20:39.601Z,6.70
2018-06-12T01:23:08.461Z,7.50
2018-06-12T01:25:37.265Z,7.83
2018-06-12T01:28:06.097Z,8.30
2018-06-12T01:30:35.033Z,6.87
2018-06-12T01:33:03.853Z,8.07
2018-06-12T01:35:32.713Z,8.97
2018-06-12T01:38:01.546Z,8.23
2018-06-12T01:40:30.430Z,8.97
2018-06-12T01:42:59.637Z,8.60
2018-06-12T01:45:28.421Z,8.70
2018-06-12T01:47:57.306Z,8.60
2018-06-12T01:50:26.141Z,8.00
2018-06-12T01:52:54.993Z,8.30
2018-06-12T01:55:23.869Z,7.60
2018-06-12T01:57:52.785Z,9.03
2018-06-12T02:00:21.625Z,7.77
2018-06-12T02:02:50.421Z,7.60
2018-06-12T02:05:19.445Z,7.40
2018-06-12T02:07:48.369Z,8.80
2018-06-12T02:10:17.237Z,8.60
2018-06-12T02:12:46.129Z,8.87
2018-06-12T02:15:14.969Z,8.00
2018-06-12T02:17:43.737Z,8.23
2018-06-12T02:20:12.546Z,8.60
2018-06-12T02:22:42.277Z,9.07
2018-06-12T02:25:11.109Z,8.47
2018-06-12T02:27:39.925Z,9.63
2018-06-12T02:30:08.750Z,9.67
2018-06-12T02:32:37.653Z,9.40
2018-06-12T02:35:06.529Z,10.40
2018-06-12T02:37:35.412Z,9.97
2018-06-12T02:40:04.276Z,8.67
2018-06-12T02:42:33.098Z,9.93
2018-06-12T02:45:01.933Z,9.37
2018-06-12T02:47:30.766Z,9.87
2018-06-12T02:49:59.677Z,9.13
2018-06-12T02:52:28.580Z,9.13
2018-06-12T02:54:57.400Z,10.50
2018-06-12T02:57:26.225Z,9.93
2018-06-12T02:59:55.021Z,9.53
2018-06-12T03:02:23.910Z,9.23
2018-06-12T03:04:52.780Z,9.07
2018-06-12T03:07:21.541Z,9.53
2018-06-12T03:09:50.384Z,10.07
2018-06-12T03:12:19.248Z,8.73
2018-06-12T03:14:48.110Z,9.23
2018-06-12T03:17:17.965Z,9.87
2018-06-12T03:19:46.980Z,8.80
2018-06-12T03:22:15.817Z,8.63
2018-06-12T03:24:44.617Z,9.70
2018-06-12T03:27:13.212Z,10.00
2018-06-12T03:29:42.013Z,9.20
2018-06-12T03:32:10.828Z,9.03
2018-06-12T03:34:39.648Z,9.30
2018-06-12T03:37:09.541Z,9.23
2018-06-12T03:39:38.393Z,8.70
2018-06-12T03:42:07.316Z,9.83
2018-06-12T03:44:36.138Z,9.90
2018-06-12T03:47:05.077Z,8.50
2018-06-12T03:49:33.934Z,9.30
2018-06-12T03:52:03.013Z,8.80
2018-06-12T03:54:31.849Z,9.43
2018-06-12T03:57:00.773Z,8.67
2018-06-12T03:59:29.569Z,8.40
2018-06-12T04:01:58.409Z,9.40
2018-06-12T04:04:27.261Z,8.50
2018-06-12T04:06:56.105Z,9.60
2018-06-12T04:09:25.035Z,9.13
2018-06-12T04:11:53.857Z,9.00
2018-06-12T04:14:22.684Z,10.00
2018-06-12T04:16:51.472Z,8.97
2018-06-12T04:19:20.268Z,9.23
2018-06-12T04:21:49.052Z,9.53
2018-06-12T04:24:17.840Z,9.67
2018-06-12T04:26:46.640Z,8.73
2018-06-12T04:29:15.409Z,9.33
2018-06-12T04:31:44.278Z,10.03
2018-06-12T04:34:13.105Z,9.60
2018-06-12T04:36:42.076Z,9.50
2018-06-12T04:39:10.872Z,10.07
2018-06-12T04:41:39.988Z,10.63
2018-06-12T04:44:08.777Z,10.33
2018-06-12T04:46:37.568Z,10.10
2018-06-12T04:49:06.352Z,10.17
2018-06-12T04:51:35.161Z,9.50
2018-06-12T04:54:04.025Z,9.90
2018-06-12T04:56:32.805Z,9.60
2018-06-12T04:59:01.577Z,9.87
2018-06-12T05:01:30.391Z,10.80
2018-06-12T05:03:59.200Z,10.00
2018-06-12T05:06:27.944Z,10.50
2018-06-12T05:08:56.734Z,9.30
2018-06-12T05:11:25.524Z,10.20
2018-06-12T05:13:54.332Z,9.30
2018-06-12T05:16:23.195Z,9.70
2018-06-12T05:18:52.005Z,10.70
2018-06-12T05:21:20.801Z,10.80
2018-06-12T05:23:49.588Z,11.63
2018-06-12T05:26:18.356Z,11.43
2018-06-12T05:28:47.136Z,11.77
2018-06-12T05:31:15.936Z,11.90
2018-06-12T05:33:44.740Z,12.40
2018-06-12T05:36:13.524Z,11.43
2018-06-12T05:38:43.387Z,10.10
2018-06-12T05:41:12.212Z,13.20
2018-06-12T05:43:41.020Z,13.53
2018-06-12T05:46:09.769Z,13.60
2018-06-12T05:48:38.552Z,12.30
2018-06-12T05:51:07.372Z,13.50
2018-06-12T05:53:36.140Z,12.30
2018-06-12T05:56:04.869Z,12.37
2018-06-12T05:58:33.633Z,13.47
2018-06-12T06:01:02.412Z,14.30
2018-06-12T06:03:31.209Z,11.80
2018-06-12T06:05:59.989Z,12.57
2018-06-12T06:08:28.784Z,11.70
2018-06-12T06:10:57.637Z,12.30
2018-06-12T06:13:26.428Z,12.90
2018-06-12T06:15:55.228Z,11.80
2018-06-12T06:18:24.033Z,11.60
2018-06-12T06:20:52.805Z,10.77
2018-06-12T06:23:21.597Z,11.17
2018-06-12T06:25:50.410Z,13.97
2018-06-12T06:28:19.165Z,12.23
2018-06-12T06:30:47.968Z,12.90
2018-06-12T06:33:16.760Z,12.30
2018-06-12T06:35:45.537Z,13.20
2018-06-12T06:38:14.332Z,12.30
2018-06-12T06:40:43.112Z,12.37
2018-06-12T06:43:11.925Z,12.17
2018-06-12T06:45:40.707Z,14.27
2018-06-12T06:48:09.269Z,15.17
2018-06-12T06:50:37.968Z,12.33
2018-06-12T06:53:06.724Z,11.23
2018-06-12T06:55:35.680Z,12.10
2018-06-12T06:58:04.668Z,11.10
2018-06-12T07:00:33.511Z,11.27
2018-06-12T07:03:02.220Z,10.73
2018-06-12T07:05:30.991Z,10.17
2018-06-12T07:07:59.764Z,10.40
2018-06-12T07:10:29.584Z,10.57
2018-06-12T07:12:58.367Z,9.90
2018-06-12T07:15:27.080Z,9.77
2018-06-12T07:17:55.827Z,11.27
2018-06-12T07:20:35.916Z,10.83
2018-06-12T07:23:04.935Z,9.40
2018-06-12T07:25:33.779Z,10.17
2018-06-12T07:28:02.588Z,10.17
2018-06-12T07:30:31.319Z,9.20
2018-06-12T07:33:00.495Z,9.10
2018-06-12T07:35:29.361Z,9.60
2018-06-12T07:37:58.160Z,10.60
2018-06-12T07:40:26.930Z,9.10
2018-06-12T07:42:55.500Z,9.77
2018-06-12T07:45:24.064Z,9.07
2018-06-12T07:47:52.772Z,8.70
2018-06-12T07:50:21.600Z,9.27
2018-06-12T07:52:50.324Z,9.63
2018-06-12T07:55:19.116Z,8.60
2018-06-12T07:57:47.908Z,9.13
2018-06-12T08:00:16.692Z,9.53
2018-06-12T08:02:45.504Z,9.67
2018-06-12T08:05:14.299Z,8.87
2018-06-12T08:07:44.080Z,9.37
2018-06-12T08:10:12.876Z,8.53
2018-06-12T08:12:41.696Z,8.90
2018-06-12T08:15:10.460Z,7.60
2018-06-12T08:17:39.260Z,9.27
2018-06-12T08:20:08.037Z,8.60
2018-06-12T08:22:36.809Z,9.30
2018-06-12T08:25:05.608Z,8.60
2018-06-12T08:27:35.404Z,8.30
2018-06-12T08:30:04.810Z,8.57
2018-06-12T08:32:33.525Z,9.63
2018-06-12T08:35:02.345Z,10.00
2018-06-12T08:37:31.188Z,8.93
2018-06-12T08:39:59.990Z,8.30
2018-06-12T08:42:28.781Z,8.60
2018-06-12T08:44:58.504Z,8.40
2018-06-12T08:47:27.253Z,8.37
2018-06-12T08:49:56.017Z,7.50
2018-06-12T08:52:25.300Z,8.30
2018-06-12T08:54:54.648Z,8.03
2018-06-12T08:57:23.424Z,7.77
2018-06-12T08:59:52.224Z,8.30
2018-06-12T09:02:21.004Z,8.23
2018-06-12T09:04:49.785Z,7.90
2018-06-12T09:07:18.581Z,7.63
2018-06-12T09:09:47.361Z,7.80
2018-06-12T09:12:16.141Z,7.00
2018-06-12T09:14:44.936Z,7.90
2018-06-12T09:17:13.732Z,7.47
2018-06-12T09:19:42.500Z,7.30
2018-06-12T09:22:11.310Z,7.67
2018-06-12T09:24:40.096Z,7.50
2018-06-12T09:27:08.824Z,8.40
2018-06-12T09:29:37.560Z,8.07
2018-06-12T09:32:06.296Z,8.10
2018-06-12T09:34:35.033Z,6.97
2018-06-12T09:37:03.816Z,6.90
2018-06-12T09:39:32.617Z,6.73
2018-06-12T09:42:01.413Z,7.30
2018-06-12T09:44:30.192Z,8.17
2018-06-12T09:46:58.920Z,8.20
2018-06-12T09:49:27.688Z,7.77
2018-06-12T09:51:56.448Z,7.43
2018-06-12T09:54:25.525Z,8.00
2018-06-12T09:56:54.344Z,7.40
2018-06-12T09:59:23.124Z,8.90
2018-06-12T10:01:51.908Z,8.13
2018-06-12T10:04:20.748Z,7.40
2018-06-12T10:06:49.423Z,8.57
2018-06-12T10:09:18.172Z,8.77
2018-06-12T10:11:46.939Z,8.20
2018-06-12T10:14:15.660Z,8.13
2018-06-12T10:16:44.432Z,8.10
2018-06-12T10:19:13.215Z,8.50
2018-06-12T10:21:41.984Z,8.03
2018-06-12T10:24:10.804Z,8.10
2018-06-12T10:26:39.580Z,8.57
2018-06-12T10:29:08.364Z,7.70
2018-06-12T10:31:38.160Z,7.73
2018-06-12T10:34:06.968Z,8.27
2018-06-12T10:36:35.744Z,8.00
2018-06-12T10:39:07.112Z,9.03
2018-06-12T10:41:35.895Z,7.87
2018-06-12T10:44:04.672Z,7.60
2018-06-12T10:46:33.467Z,8.00
2018-06-12T10:49:02.256Z,8.37
2018-06-12T10:51:31.040Z,7.67
2018-06-12T10:53:59.835Z,7.77
2018-06-12T10:56:28.610Z,6.77
2018-06-12T10:58:57.323Z,7.20
2018-06-12T11:01:25.969Z,7.20
2018-06-12T11:03:54.596Z,7.90
2018-06-12T11:06:23.388Z,7.30
2018-06-12T11:08:52.148Z,7.40
2018-06-12T11:11:20.936Z,7.60
2018-06-12T11:13:49.736Z,6.90
2018-06-12T11:16:18.496Z,6.13
2018-06-12T11:18:47.287Z,7.33
2018-06-12T11:21:16.083Z,6.63
2018-06-12T11:23:44.879Z,6.87
2018-06-12T11:26:13.675Z,7.47
2018-06-12T11:28:42.444Z,7.33
2018-06-12T11:31:11.252Z,6.60
2018-06-12T11:33:39.976Z,7.10
2018-06-12T11:36:08.788Z,7.13
2018-06-12T11:38:37.595Z,7.40
2018-06-12T11:41:06.332Z,6.80
2018-06-12T11:43:35.049Z,7.23
2018-06-12T11:46:03.895Z,6.87
2018-06-12T11:48:33.459Z,6.70
2018-06-12T11:51:02.166Z,6.40
2018-06-12T11:53:30.996Z,6.90
2018-06-12T11:55:59.868Z,6.17
2018-06-12T11:58:28.651Z,6.37
2018-06-12T12:00:57.223Z,6.80
2018-06-12T12:03:25.883Z,5.90
2018-06-12T12:05:54.672Z,6.50
2018-06-12T12:08:23.447Z,6.30
2018-06-12T12:10:52.258Z,6.17
2018-06-12T12:13:21.047Z,6.30
2018-06-12T12:15:49.727Z,6.20
2018-06-12T12:18:18.430Z,6.80
2018-06-12T12:20:47.554Z,5.47
2018-06-12T12:23:23.365Z,5.83
2018-06-12T12:25:59.195Z,6.53
2018-06-12T12:28:34.498Z,6.60
2018-06-12T12:31:03.342Z,6.40
2018-06-12T12:33:32.127Z,6.60
2018-06-12T12:36:00.950Z,6.20
2018-06-12T12:38:29.706Z,7.17
2018-06-12T12:40:58.422Z,6.60
2018-06-12T12:43:28.162Z,6.73
2018-06-12T12:45:56.994Z,6.97
2018-06-12T12:48:25.859Z,6.60
2018-06-12T12:50:55.375Z,6.90
2018-06-12T12:53:24.066Z,7.47
2018-06-12T12:55:52.858Z,6.90
2018-06-12T12:58:21.570Z,6.40
2018-06-12T13:00:50.339Z,7.00
2018-06-12T13:03:20.023Z,6.40
2018-06-12T13:05:48.822Z,7.27
2018-06-12T13:08:17.674Z,6.90
2018-06-12T13:10:46.434Z,7.13
2018-06-12T13:13:15.194Z,6.23
2018-06-12T13:15:43.991Z,6.80
2018-06-12T13:18:12.783Z,7.27
2018-06-12T13:20:41.579Z,7.30
2018-06-12T13:23:10.371Z,7.63
2018-06-12T13:25:39.119Z,7.87
2018-06-12T13:28:08.953Z,8.13
2018-06-12T13:30:38.756Z,7.70
2018-06-12T13:33:07.795Z,8.27
2018-06-12T13:35:36.628Z,8.33
2018-06-12T13:38:05.371Z,8.90
2018-06-12T13:40:34.106Z,8.83
2018-06-12T13:43:02.899Z,8.53
2018-06-12T13:45:31.708Z,8.40
2018-06-12T13:48:00.471Z,7.73
2018-06-12T13:50:29.215Z,8.43
2018-06-12T13:52:57.957Z,8.03
2018-06-12T13:55:26.763Z,7.77
2018-06-12T13:57:55.312Z,8.07
2018-06-12T14:00:24.008Z,7.00
2018-06-12T14:02:52.815Z,7.73
2018-06-12T14:05:21.571Z,7.60
2018-06-12T14:07:50.391Z,7.30
2018-06-12T14:10:19.183Z,6.70
2018-06-12T14:12:47.739Z,6.83
2018-06-12T14:15:16.428Z,7.23
2018-06-12T14:17:45.203Z,7.43
2018-06-12T14:20:14.019Z,7.00
2018-06-12T14:22:42.807Z,7.50
2018-06-12T14:25:11.599Z,6.20
2018-06-12T14:27:40.358Z,6.77
2018-06-12T14:30:09.143Z,7.43
2018-06-12T14:32:37.936Z,7.00
2018-06-12T14:35:06.743Z,6.93
2018-06-12T14:37:35.526Z,7.73
2018-06-12T14:40:04.331Z,5.77
2018-06-12T14:42:32.882Z,6.67
2018-06-12T14:45:01.563Z,7.30
2018-06-12T14:47:30.346Z,6.50
2018-06-12T14:49:59.082Z,6.67
2018-06-12T14:52:27.825Z,6.37
2018-06-12T14:54:56.602Z,7.23
2018-06-12T14:57:25.405Z,7.33
2018-06-12T14:59:54.171Z,6.37
2018-06-12T15:02:22.974Z,6.47
2018-06-12T15:04:51.758Z,6.40
2018-06-12T15:07:20.555Z,6.80
2018-06-12T15:09:49.339Z,6.37
2018-06-12T15:12:18.121Z,6.17
2018-06-12T15:14:46.873Z,7.10
2018-06-12T15:17:15.608Z,6.67
2018-06-12T15:19:44.351Z,6.50
2018-06-12T15:22:13.158Z,6.67
2018-06-12T15:24:41.952Z,6.70
2018-06-12T15:27:10.745Z,6.20
2018-06-12T15:29:39.531Z,5.93
2018-06-12T15:32:08.335Z,6.50
2018-06-12T15:34:37.119Z,6.10
2018-06-12T15:37:06.034Z,6.50
2018-06-12T15:39:34.787Z,6.73
2018-06-12T15:42:03.596Z,6.63
2018-06-12T15:44:32.350Z,6.53
2018-06-12T15:47:01.087Z,6.53
2018-06-12T15:49:29.839Z,6.00
2018-06-12T15:51:58.578Z,6.27
2018-06-12T15:54:27.422Z,6.60
2018-06-12T15:56:56.207Z,6.93
2018-06-12T15:59:25.007Z,6.60
2018-06-12T16:01:53.793Z,6.20
2018-06-12T16:04:22.539Z,6.73
2018-06-12T16:06:51.354Z,7.07
2018-06-12T16:09:20.175Z,6.47
2018-06-12T16:11:48.967Z,5.87
2018-06-12T16:14:17.726Z,5.53
2018-06-12T16:16:46.510Z,6.20
2018-06-12T16:19:15.294Z,6.50
2018-06-12T16:21:44.082Z,5.33
2018-06-12T16:24:12.882Z,5.97
2018-06-12T16:26:41.454Z,6.17
2018-06-12T16:29:10.134Z,5.90
2018-06-12T16:31:38.923Z,6.37
2018-06-12T16:34:07.718Z,6.70
2018-06-12T16:36:36.517Z,6.70
2018-06-12T16:39:07.274Z,6.80
2018-06-12T16:41:36.230Z,6.57
2018-06-12T16:44:05.206Z,5.77
2018-06-12T16:46:34.006Z,5.70
2018-06-12T16:49:02.970Z,6.20
2018-06-12T16:51:31.670Z,5.80
2018-06-12T16:54:00.474Z,7.07
2018-06-12T16:56:29.219Z,5.97
2018-06-12T16:58:57.966Z,6.30
2018-06-12T17:01:27.762Z,6.50
2018-06-12T17:03:56.734Z,6.13
2018-06-12T17:06:25.542Z,7.37
2018-06-12T17:08:54.322Z,5.93
2018-06-12T17:11:23.126Z,5.90
2018-06-12T17:13:51.922Z,6.50
2018-06-12T17:16:21.808Z,6.73
2018-06-12T17:18:50.499Z,6.50
2018-06-12T17:21:19.290Z,7.00
2018-06-12T17:23:48.070Z,7.40
2018-06-12T17:26:16.874Z,7.10
2018-06-12T17:28:45.654Z,6.40
2018-06-12T17:31:14.362Z,6.90
2018-06-12T17:33:43.110Z,7.00
2018-06-12T17:36:11.854Z,6.27
2018-06-12T17:38:40.609Z,6.90
2018-06-12T17:41:09.479Z,7.13
2018-06-12T17:43:38.277Z,6.73
2018-06-12T17:46:07.098Z,8.10
2018-06-12T17:48:35.814Z,7.57
2018-06-12T17:51:05.566Z,7.00
2018-06-12T17:53:34.341Z,7.03
2018-06-12T17:56:03.145Z,6.60
2018-06-12T17:58:31.910Z,7.63
2018-06-12T18:01:00.658Z,8.30
2018-06-12T18:03:29.400Z,8.63
2018-06-12T18:05:58.257Z,8.73
2018-06-12T18:08:27.106Z,7.97
2018-06-12T18:10:55.890Z,8.23
2018-06-12T18:13:24.685Z,7.60
2018-06-12T18:15:53.249Z,8.93
2018-06-12T18:18:21.921Z,8.30
2018-06-12T18:20:50.701Z,7.97
2018-06-12T18:23:19.433Z,8.70
2018-06-12T18:25:48.177Z,8.70
2018-06-12T18:28:16.993Z,8.80
2018-06-12T18:30:45.753Z,8.87
2018-06-12T18:33:14.545Z,9.47
2018-06-12T18:35:43.365Z,9.37
2018-06-12T18:38:12.141Z,9.93
2018-06-12T18:40:40.914Z,8.87
2018-06-12T18:43:11.137Z,9.67
2018-06-12T18:45:39.950Z,10.40
2018-06-12T18:48:08.729Z,8.60
2018-06-12T18:50:37.547Z,8.90
2018-06-12T18:53:06.450Z,8.97
2018-06-12T18:55:35.278Z,9.30
2018-06-12T18:58:04.090Z,10.20
2018-06-12T19:00:32.861Z,9.73
2018-06-12T19:03:01.699Z,10.33
2018-06-12T19:05:30.585Z,10.20
2018-06-12T19:07:59.453Z,10.33
2018-06-12T19:10:28.226Z,11.27
2018-06-12T19:12:57.009Z,10.23
2018-06-12T19:15:25.794Z,10.90
2018-06-12T19:17:54.601Z,9.80
2018-06-12T19:20:23.370Z,10.00
2018-06-12T19:22:52.230Z,9.63
2018-06-12T19:25:21.061Z,10.90
2018-06-12T19:27:49.633Z,9.53
2018-06-12T19:30:18.325Z,10.90
2018-06-12T19:32:47.274Z,10.63
2018-06-12T19:35:16.082Z,9.83
2018-06-12T19:37:44.918Z,11.30
2018-06-12T19:40:13.685Z,11.17
2018-06-12T19:42:42.450Z,11.30
2018-06-12T19:45:11.249Z,10.90
2018-06-12T19:47:40.061Z,12.03
2018-06-12T19:50:08.849Z,11.37
2018-06-12T19:52:37.606Z,11.93
2018-06-12T19:55:06.441Z,11.10
2018-06-12T19:57:35.014Z,10.50
2018-06-12T20:02:40.854Z,13.77
2018-06-12T20:05:09.641Z,13.50
2018-06-12T20:07:39.382Z,12.83
2018-06-12T20:13:01.689Z,13.53
2018-06-12T20:18:41.782Z,14.43
2018-06-12T20:21:10.605Z,14.13
2018-06-12T20:23:45.873Z,13.43
2018-06-12T20:26:20.913Z,13.60
2018-06-12T20:28:49.729Z,12.40
2018-06-12T20:31:19.625Z,14.33
2018-06-12T20:33:48.397Z,14.10
2018-06-12T20:36:18.269Z,14.97
2018-06-12T20:38:52.345Z,14.27
2018-06-12T20:41:27.717Z,13.43
